Time;durP1;ratioP1;P1;durP2;ratioP2;P2;SDS_P1;SDS_P2;PMS_P1;PMS_P2;Temp;Humidity;BMP_temperature;BMP_pressure;BME280_temperature;BME280_humidity;BME280_pressure;Samples;Min_cycle;Max_cycle;Signal;HPM_P1;HPM_P2
2022/05/18 00:01:17;;;;;;;6.83;5.97;;;;;;;;;;5074826;28;20808;-71
2022/05/18 00:03:47;;;;;;;6.23;5.63;;;;;;;;;;5060342;28;20515;-72
2022/05/18 00:06:15;;;;;;;7.70;6.20;;;;;;;;;;5072295;28;20452;-72
2022/05/18 00:08:42;;;;;;;6.00;5.40;;;;;;;;;;5069784;28;20455;-72
2022/05/18 00:11:11;;;;;;;9.77;5.60;;;;;;;;;;5058166;28;20457;-72
2022/05/18 00:13:42;;;;;;;5.53;4.90;;;;;;;;;;5061119;28;20465;-72
2022/05/18 00:16:10;;;;;;;8.60;4.63;;;;;;;;;;5065355;28;20445;-72
2022/05/18 00:18:38;;;;;;;4.40;3.93;;;;;;;;;;5057989;28;20565;-72
2022/05/18 00:21:08;;;;;;;7.27;3.07;;;;;;;;;;5059657;28;20489;-72
2022/05/18 00:23:37;;;;;;;6.00;3.47;;;;;;;;;;5067215;28;20475;-72
2022/05/18 00:26:05;;;;;;;4.93;3.20;;;;;;;;;;5063205;28;20718;-73
2022/05/18 00:28:33;;;;;;;5.43;2.97;;;;;;;;;;5067197;28;20449;-72
2022/05/18 00:31:00;;;;;;;5.93;2.83;;;;;;;;;;5067706;28;20457;-71
2022/05/18 00:33:29;;;;;;;3.07;2.33;;;;;;;;;;5066264;28;20895;-71
2022/05/18 00:35:57;;;;;;;4.77;2.60;;;;;;;;;;5060606;28;20583;-71
2022/05/18 00:38:26;;;;;;;3.70;2.40;;;;;;;;;;5056471;28;20960;-73
2022/05/18 00:40:54;;;;;;;3.63;2.30;;;;;;;;;;5062100;28;20517;-72
2022/05/18 00:43:37;;;;;;;3.67;1.90;;;;;;;;;;5063847;28;20445;-72
2022/05/18 00:46:06;;;;;;;6.33;2.80;;;;;;;;;;5068663;28;20464;-71
2022/05/18 00:48:34;;;;;;;3.90;2.30;;;;;;;;;;5062891;28;20503;-72
2022/05/18 00:51:03;;;;;;;5.70;2.00;;;;;;;;;;5068981;28;20465;-72
2022/05/18 00:53:33;;;;;;;7.33;1.97;;;;;;;;;;5057527;28;20503;-72
2022/05/18 00:56:04;;;;;;;3.60;1.70;;;;;;;;;;5054996;28;20507;-72
2022/05/18 00:58:34;;;;;;;4.17;2.20;;;;;;;;;;5064191;28;20514;-72
2022/05/18 01:01:01;;;;;;;5.50;2.23;;;;;;;;;;5061660;28;21626;-72
2022/05/18 01:03:30;;;;;;;4.00;1.77;;;;;;;;;;5063465;28;20539;-72
2022/05/18 01:06:00;;;;;;;3.20;1.73;;;;;;;;;;5062843;28;20744;-70
2022/05/18 01:08:33;;;;;;;24.73;2.13;;;;;;;;;;5055722;28;20454;-71
2022/05/18 01:11:05;;;;;;;3.03;1.70;;;;;;;;;;5075084;28;20538;-72
2022/05/18 01:13:32;;;;;;;6.00;1.67;;;;;;;;;;5057544;28;20912;-72
2022/05/18 01:16:00;;;;;;;4.00;2.20;;;;;;;;;;5061730;28;20453;-72
2022/05/18 01:18:29;;;;;;;4.20;1.73;;;;;;;;;;5070084;28;20460;-71
2022/05/18 01:20:57;;;;;;;5.30;1.90;;;;;;;;;;5058660;28;20994;-73
2022/05/18 01:23:38;;;;;;;6.03;2.17;;;;;;;;;;5067837;28;20441;-72
2022/05/18 01:26:13;;;;;;;2.60;1.27;;;;;;;;;;5062137;28;20460;-72
2022/05/18 01:28:43;;;;;;;3.53;1.63;;;;;;;;;;5063187;28;20859;-72
2022/05/18 01:31:11;;;;;;;2.07;1.43;;;;;;;;;;5063588;28;20880;-71
2022/05/18 01:33:38;;;;;;;4.33;1.80;;;;;;;;;;5065837;28;20881;-71
2022/05/18 01:36:06;;;;;;;3.23;2.00;;;;;;;;;;5059526;28;20498;-72
2022/05/18 01:38:35;;;;;;;7.40;2.30;;;;;;;;;;5066516;28;20449;-72
2022/05/18 01:41:06;;;;;;;6.70;1.33;;;;;;;;;;5063843;28;20480;-70
2022/05/18 01:43:35;;;;;;;2.43;1.13;;;;;;;;;;5057084;28;20445;-72
2022/05/18 01:46:06;;;;;;;3.07;1.60;;;;;;;;;;5069922;28;20543;-72
2022/05/18 01:48:35;;;;;;;3.07;1.60;;;;;;;;;;5059548;28;20441;-72
2022/05/18 01:51:03;;;;;;;4.77;1.80;;;;;;;;;;5063616;28;20463;-70
2022/05/18 01:53:31;;;;;;;2.50;1.53;;;;;;;;;;5068765;28;20484;-72
2022/05/18 01:55:59;;;;;;;7.67;1.60;;;;;;;;;;5059860;28;20465;-72
2022/05/18 01:58:26;;;;;;;4.73;1.57;;;;;;;;;;5063135;28;20846;-72
2022/05/18 02:00:54;;;;;;;5.00;2.20;;;;;;;;;;5070290;28;20452;-71
2022/05/18 02:03:23;;;;;;;2.87;1.70;;;;;;;;;;5055780;28;20528;-71
2022/05/18 02:05:52;;;;;;;1.90;1.00;;;;;;;;;;5063352;28;20457;-73
2022/05/18 02:08:21;;;;;;;3.30;1.50;;;;;;;;;;5070363;28;20437;-72
2022/05/18 02:10:49;;;;;;;2.37;1.17;;;;;;;;;;5061982;28;20500;-72
2022/05/18 02:13:16;;;;;;;3.40;1.40;;;;;;;;;;5065041;28;20535;-72
2022/05/18 02:15:44;;;;;;;2.90;1.57;;;;;;;;;;5061284;28;20464;-72
2022/05/18 02:18:12;;;;;;;3.13;1.63;;;;;;;;;;5065135;28;20444;-72
2022/05/18 02:20:41;;;;;;;4.23;1.30;;;;;;;;;;5063823;28;20541;-71
2022/05/18 02:23:12;;;;;;;3.20;1.80;;;;;;;;;;5060298;28;20956;-72
2022/05/18 02:25:39;;;;;;;3.00;1.10;;;;;;;;;;5065772;28;20554;-71
2022/05/18 02:28:07;;;;;;;3.20;1.50;;;;;;;;;;5059404;28;20763;-73
2022/05/18 02:30:35;;;;;;;4.83;2.20;;;;;;;;;;5068303;28;20457;-72
2022/05/18 02:33:02;;;;;;;3.47;1.20;;;;;;;;;;5068053;28;20448;-72
2022/05/18 02:35:30;;;;;;;3.67;1.13;;;;;;;;;;5058386;28;20462;-72
2022/05/18 02:38:18;;;;;;;5.83;1.30;;;;;;;;;;5071294;28;20891;-72
2022/05/18 02:46:38;;;;;;;3.43;1.50;;;;;;;;;;5092495;28;20442;-72
2022/05/18 02:49:06;;;;;;;2.47;1.10;;;;;;;;;;5082628;28;20501;-72
2022/05/18 02:51:33;;;;;;;3.47;1.30;;;;;;;;;;5080358;28;20853;-71
2022/05/18 02:56:05;;;;;;;4.23;1.43;;;;;;;;;;5088040;28;21052;-73
2022/05/18 02:56:48;;;;;;;3.87;1.67;;;;;;;;;;5079559;28;20433;-72
2022/05/18 02:59:16;;;;;;;3.37;1.30;;;;;;;;;;5077761;28;20488;-72
2022/05/18 03:01:46;;;;;;;2.67;1.40;;;;;;;;;;5085709;28;20529;-72
2022/05/18 03:04:13;;;;;;;4.10;1.37;;;;;;;;;;5086105;28;20543;-72
2022/05/18 03:06:41;;;;;;;2.10;1.20;;;;;;;;;;5079428;28;20534;-72
2022/05/18 03:09:09;;;;;;;3.00;1.20;;;;;;;;;;5089853;28;20492;-71
2022/05/18 03:11:39;;;;;;;3.50;1.60;;;;;;;;;;5085861;28;20861;-72
2022/05/18 03:14:07;;;;;;;3.90;1.70;;;;;;;;;;5082370;28;20457;-71
2022/05/18 03:16:39;;;;;;;6.87;3.60;;;;;;;;;;5079625;28;20888;-73
2022/05/18 03:19:11;;;;;;;3.30;1.40;;;;;;;;;;5080174;28;20449;-72
2022/05/18 03:24:30;;;;;;;2.67;1.20;;;;;;;;;;5081956;28;20891;-72
2022/05/18 03:26:59;;;;;;;2.10;1.47;;;;;;;;;;5093886;28;20459;-72
2022/05/18 03:29:26;;;;;;;3.50;1.60;;;;;;;;;;5080405;28;20440;-72
2022/05/18 03:31:54;;;;;;;2.53;1.53;;;;;;;;;;5090559;28;20463;-72
2022/05/18 03:34:24;;;;;;;2.40;1.50;;;;;;;;;;5096425;28;20454;-72
2022/05/18 03:36:51;;;;;;;2.47;1.23;;;;;;;;;;5079315;28;20467;-73
2022/05/18 03:39:19;;;;;;;4.50;1.47;;;;;;;;;;5082973;28;20597;-73
2022/05/18 03:41:47;;;;;;;2.50;1.40;;;;;;;;;;5087450;28;20520;-72
2022/05/18 03:44:15;;;;;;;2.60;1.30;;;;;;;;;;5076712;28;20472;-72
2022/05/18 03:46:42;;;;;;;3.03;1.60;;;;;;;;;;5076661;28;20461;-71
2022/05/18 03:49:10;;;;;;;2.33;1.20;;;;;;;;;;5080581;28;20445;-71
2022/05/18 03:51:39;;;;;;;2.03;1.20;;;;;;;;;;5081027;28;20463;-72
2022/05/18 03:54:07;;;;;;;8.93;1.60;;;;;;;;;;5095888;28;20451;-72
2022/05/18 03:56:35;;;;;;;3.03;1.60;;;;;;;;;;5093179;28;20464;-71
2022/05/18 03:59:03;;;;;;;3.20;1.50;;;;;;;;;;5096688;28;20451;-71
2022/05/18 04:01:31;;;;;;;6.57;1.40;;;;;;;;;;5096031;28;20460;-72
2022/05/18 04:03:59;;;;;;;4.40;1.23;;;;;;;;;;5089176;28;20444;-71
2022/05/18 04:06:26;;;;;;;3.60;1.60;;;;;;;;;;5088874;28;20855;-71
2022/05/18 04:08:55;;;;;;;3.27;1.53;;;;;;;;;;5096459;28;20444;-72
2022/05/18 04:11:23;;;;;;;1.80;1.10;;;;;;;;;;5095131;28;20546;-73
2022/05/18 04:13:51;;;;;;;3.70;1.50;;;;;;;;;;5085503;28;20529;-73
2022/05/18 04:16:19;;;;;;;5.07;1.57;;;;;;;;;;5092159;28;20562;-71
2022/05/18 04:18:47;;;;;;;4.97;1.87;;;;;;;;;;5094795;28;20472;-72
2022/05/18 04:21:15;;;;;;;2.80;1.70;;;;;;;;;;5095896;28;20503;-72
2022/05/18 04:23:42;;;;;;;7.37;1.97;;;;;;;;;;5092561;28;20487;-71
2022/05/18 04:26:15;;;;;;;2.40;1.57;;;;;;;;;;5086906;28;20883;-72
2022/05/18 04:28:42;;;;;;;2.30;1.60;;;;;;;;;;5090775;28;20452;-73
2022/05/18 04:31:10;;;;;;;2.50;1.43;;;;;;;;;;5075714;28;20467;-72
2022/05/18 04:33:38;;;;;;;2.93;1.57;;;;;;;;;;5082513;28;20440;-72
2022/05/18 04:36:09;;;;;;;3.50;1.80;;;;;;;;;;5074964;28;20483;-72
2022/05/18 04:38:37;;;;;;;6.43;1.50;;;;;;;;;;5075267;28;20483;-72
2022/05/18 04:41:05;;;;;;;6.63;1.60;;;;;;;;;;5074811;28;20461;-71
2022/05/18 04:43:34;;;;;;;7.03;3.00;;;;;;;;;;5074259;28;20510;-70
2022/05/18 04:46:02;;;;;;;3.60;1.77;;;;;;;;;;5081937;28;20554;-72
2022/05/18 04:48:31;;;;;;;2.83;2.00;;;;;;;;;;5075511;28;20453;-72
2022/05/18 04:50:59;;;;;;;4.37;1.70;;;;;;;;;;5074753;28;20547;-72
2022/05/18 04:53:36;;;;;;;2.50;1.70;;;;;;;;;;5082244;28;20445;-72
2022/05/18 04:56:04;;;;;;;2.33;1.53;;;;;;;;;;5074310;28;20815;-70
2022/05/18 04:58:34;;;;;;;4.27;1.90;;;;;;;;;;5075880;28;20451;-73
2022/05/18 05:01:06;;;;;;;5.23;1.70;;;;;;;;;;5090599;28;20459;-73
2022/05/18 05:03:33;;;;;;;4.10;1.80;;;;;;;;;;5075955;28;20545;-72
2022/05/18 05:06:01;;;;;;;4.20;1.90;;;;;;;;;;5079344;28;20525;-72
2022/05/18 05:08:29;;;;;;;3.00;1.63;;;;;;;;;;5082702;28;20460;-71
2022/05/18 05:10:57;;;;;;;7.33;2.70;;;;;;;;;;5085660;28;20804;-72
2022/05/18 05:13:27;;;;;;;2.53;1.47;;;;;;;;;;5077462;28;20938;-72
2022/05/18 05:16:02;;;;;;;3.30;1.90;;;;;;;;;;5080487;28;20793;-71
2022/05/18 05:18:30;;;;;;;4.60;1.60;;;;;;;;;;5072414;28;20460;-72
2022/05/18 05:20:59;;;;;;;4.17;1.93;;;;;;;;;;5071750;28;20495;-72
2022/05/18 05:23:28;;;;;;;4.47;2.10;;;;;;;;;;5085165;28;20488;-72
2022/05/18 05:25:56;;;;;;;3.20;1.90;;;;;;;;;;5080843;28;20449;-71
2022/05/18 05:28:24;;;;;;;6.10;2.97;;;;;;;;;;5072539;28;20463;-72
2022/05/18 05:30:52;;;;;;;2.60;1.90;;;;;;;;;;5080906;28;20509;-72
2022/05/18 05:33:21;;;;;;;4.37;1.67;;;;;;;;;;5080530;28;20453;-71
2022/05/18 05:35:51;;;;;;;4.23;2.07;;;;;;;;;;5087444;28;21213;-71
2022/05/18 05:38:19;;;;;;;5.67;2.00;;;;;;;;;;5078010;28;20476;-72
2022/05/18 05:40:47;;;;;;;5.83;2.07;;;;;;;;;;5084247;28;20487;-72
2022/05/18 05:43:15;;;;;;;3.70;2.17;;;;;;;;;;5072147;28;20942;-72
2022/05/18 05:45:43;;;;;;;4.60;2.20;;;;;;;;;;5071806;28;20456;-72
2022/05/18 05:48:14;;;;;;;3.50;1.90;;;;;;;;;;5084766;28;20567;-72
2022/05/18 05:50:50;;;;;;;5.30;2.10;;;;;;;;;;5078809;28;20459;-73
2022/05/18 05:53:20;;;;;;;2.67;1.70;;;;;;;;;;5079938;28;20558;-71
2022/05/18 05:55:48;;;;;;;3.87;2.97;;;;;;;;;;5071999;28;20690;-71
2022/05/18 05:58:17;;;;;;;7.37;2.50;;;;;;;;;;5073167;28;20543;-71
2022/05/18 06:00:46;;;;;;;6.00;2.60;;;;;;;;;;5080685;28;20448;-71
2022/05/18 06:03:14;;;;;;;4.50;3.07;;;;;;;;;;5080192;28;20511;-72
2022/05/18 06:05:42;;;;;;;4.93;2.80;;;;;;;;;;5080518;28;20443;-71
2022/05/18 06:08:11;;;;;;;5.97;3.33;;;;;;;;;;5087406;28;20468;-72
2022/05/18 06:10:39;;;;;;;4.20;2.87;;;;;;;;;;5087966;28;21147;-71
2022/05/18 06:13:07;;;;;;;4.20;2.50;;;;;;;;;;5094327;28;20477;-72
2022/05/18 06:15:36;;;;;;;4.50;4.00;;;;;;;;;;5089621;28;20455;-71
2022/05/18 06:18:06;;;;;;;5.77;3.13;;;;;;;;;;5076482;28;20472;-71
2022/05/18 06:20:35;;;;;;;3.97;2.33;;;;;;;;;;5075395;28;21070;-71
2022/05/18 06:23:03;;;;;;;4.60;2.43;;;;;;;;;;5074946;28;20492;-71
2022/05/18 06:25:37;;;;;;;4.93;2.97;;;;;;;;;;5082160;28;20552;-71
2022/05/18 06:28:05;;;;;;;5.17;2.93;;;;;;;;;;5079462;28;20554;-73
2022/05/18 06:30:38;;;;;;;5.13;3.83;;;;;;;;;;5077809;28;20453;-71
2022/05/18 06:33:05;;;;;;;4.60;3.00;;;;;;;;;;5088353;28;20451;-71
2022/05/18 06:35:33;;;;;;;4.47;2.27;;;;;;;;;;5086579;28;20787;-70
2022/05/18 06:38:01;;;;;;;5.90;4.07;;;;;;;;;;5077668;28;20546;-72
2022/05/18 06:43:11;;;;;;;5.33;2.97;;;;;;;;;;5074038;28;20568;-70
2022/05/18 06:45:41;;;;;;;5.07;3.03;;;;;;;;;;5074396;28;20513;-72
2022/05/18 06:48:08;;;;;;;6.47;4.30;;;;;;;;;;5074337;28;20456;-71
2022/05/18 06:50:36;;;;;;;4.40;2.93;;;;;;;;;;5075702;28;20785;-72
2022/05/18 06:53:04;;;;;;;5.20;2.90;;;;;;;;;;5086236;28;20906;-71
2022/05/18 06:55:32;;;;;;;4.97;3.50;;;;;;;;;;5087245;28;20458;-71
2022/05/18 06:58:00;;;;;;;4.03;3.23;;;;;;;;;;5074375;28;20590;-71
2022/05/18 07:00:29;;;;;;;7.67;6.73;;;;;;;;;;5073913;28;20468;-70
2022/05/18 07:03:01;;;;;;;9.83;3.50;;;;;;;;;;5074243;28;21003;-71
2022/05/18 07:05:29;;;;;;;6.83;4.57;;;;;;;;;;5077002;28;20561;-71
2022/05/18 07:07:59;;;;;;;9.47;3.87;;;;;;;;;;5081781;28;20452;-72
2022/05/18 07:10:28;;;;;;;7.47;3.80;;;;;;;;;;5086893;28;20452;-71
2022/05/18 07:12:58;;;;;;;5.40;3.70;;;;;;;;;;5091259;28;20462;-73
2022/05/18 07:15:25;;;;;;;7.03;3.50;;;;;;;;;;5080680;28;20449;-71
2022/05/18 07:17:59;;;;;;;4.80;3.40;;;;;;;;;;5082824;28;20464;-72
2022/05/18 07:20:35;;;;;;;5.27;3.23;;;;;;;;;;5081456;28;20868;-71
2022/05/18 07:23:06;;;;;;;13.63;3.90;;;;;;;;;;5083067;28;20785;-72
2022/05/18 07:25:37;;;;;;;6.17;4.03;;;;;;;;;;5078671;28;20930;-72
2022/05/18 07:28:05;;;;;;;7.90;4.23;;;;;;;;;;5086693;28;20468;-71
2022/05/18 07:30:36;;;;;;;5.60;4.23;;;;;;;;;;5073002;28;20812;-72
2022/05/18 07:33:05;;;;;;;6.67;4.60;;;;;;;;;;5078168;28;20483;-71
2022/05/18 07:35:32;;;;;;;8.43;4.80;;;;;;;;;;5085304;28;20439;-71
2022/05/18 07:38:00;;;;;;;9.40;4.37;;;;;;;;;;5094172;28;20859;-71
2022/05/18 07:40:29;;;;;;;6.33;3.93;;;;;;;;;;5090323;28;20479;-71
2022/05/18 07:42:57;;;;;;;6.00;4.17;;;;;;;;;;5073390;28;20787;-70
2022/05/18 07:45:26;;;;;;;5.23;4.43;;;;;;;;;;5073843;28;21007;-71
2022/05/18 07:47:54;;;;;;;6.40;4.40;;;;;;;;;;5085902;28;20543;-70
2022/05/18 07:50:24;;;;;;;6.77;5.90;;;;;;;;;;5077699;28;20465;-70
2022/05/18 07:52:59;;;;;;;6.83;5.63;;;;;;;;;;5078848;28;20456;-70
2022/05/18 07:55:31;;;;;;;6.27;4.90;;;;;;;;;;5091842;28;20459;-71
2022/05/18 07:58:01;;;;;;;5.70;4.77;;;;;;;;;;5092402;28;20745;-72
2022/05/18 08:00:32;;;;;;;5.63;4.90;;;;;;;;;;5078195;28;20457;-71
2022/05/18 08:03:07;;;;;;;6.53;5.73;;;;;;;;;;5085402;28;20570;-71
2022/05/18 08:05:37;;;;;;;11.77;5.90;;;;;;;;;;5076116;28;20510;-72
2022/05/18 08:08:07;;;;;;;8.40;5.70;;;;;;;;;;5074284;28;20456;-72
2022/05/18 08:16:11;;;;;;;9.20;5.70;;;;;;;;;;5087114;28;20471;-71
2022/05/18 08:18:41;;;;;;;5.87;5.30;;;;;;;;;;5093102;28;20513;-71
2022/05/18 08:21:13;;;;;;;6.50;5.60;;;;;;;;;;5087136;28;20635;-71
2022/05/18 08:23:42;;;;;;;8.30;6.53;;;;;;;;;;5089558;28;20483;-71
2022/05/18 08:26:09;;;;;;;10.30;5.63;;;;;;;;;;5079453;28;20819;-72
2022/05/18 08:28:37;;;;;;;8.80;5.70;;;;;;;;;;5081458;28;20464;-70
2022/05/18 08:31:05;;;;;;;7.83;6.13;;;;;;;;;;5077334;28;20532;-72
2022/05/18 08:33:36;;;;;;;8.10;6.03;;;;;;;;;;5083956;28;20464;-72
2022/05/18 08:36:05;;;;;;;13.17;9.50;;;;;;;;;;5086156;28;20481;-71
2022/05/18 08:38:35;;;;;;;7.80;5.90;;;;;;;;;;5087019;28;20456;-71
2022/05/18 08:41:09;;;;;;;8.50;6.00;;;;;;;;;;5089179;28;20513;-71
2022/05/18 08:43:48;;;;;;;8.37;6.40;;;;;;;;;;5080025;28;20566;-72
2022/05/18 08:46:21;;;;;;;10.00;6.47;;;;;;;;;;5084293;28;20529;-72
2022/05/18 08:49:06;;;;;;;7.83;6.30;;;;;;;;;;5087469;28;20487;-71
2022/05/18 08:51:40;;;;;;;9.33;6.27;;;;;;;;;;5079516;28;21080;-70
2022/05/18 08:54:23;;;;;;;6.17;5.57;;;;;;;;;;5078375;28;20461;-72
2022/05/18 08:56:56;;;;;;;7.73;6.23;;;;;;;;;;5080978;28;20455;-72
2022/05/18 08:59:27;;;;;;;7.73;6.10;;;;;;;;;;5086192;28;20457;-72
2022/05/18 09:02:04;;;;;;;7.63;6.90;;;;;;;;;;5081830;28;20805;-72
2022/05/18 09:10:52;;;;;;;8.60;6.87;;;;;;;;;;5083137;28;20512;-71
2022/05/18 09:13:20;;;;;;;7.97;7.10;;;;;;;;;;5083388;28;20780;-71
2022/05/18 09:15:55;;;;;;;9.30;7.90;;;;;;;;;;5079259;28;20463;-72
2022/05/18 09:18:26;;;;;;;8.90;8.10;;;;;;;;;;5073223;28;20456;-72
2022/05/18 09:21:01;;;;;;;8.70;7.50;;;;;;;;;;5079321;28;20523;-70
2022/05/18 09:23:47;;;;;;;10.67;8.23;;;;;;;;;;5082642;28;20488;-72
2022/05/18 09:26:39;;;;;;;12.00;8.47;;;;;;;;;;5077086;28;20451;-71
2022/05/18 09:29:13;;;;;;;9.67;8.67;;;;;;;;;;5075406;28;20525;-70
2022/05/18 09:31:57;;;;;;;8.90;8.00;;;;;;;;;;5078021;28;20452;-72
2022/05/18 09:34:36;;;;;;;11.63;8.13;;;;;;;;;;5089154;28;20484;-72
2022/05/18 09:37:19;;;;;;;11.40;9.13;;;;;;;;;;5076570;28;20480;-71
2022/05/18 09:39:48;;;;;;;9.60;8.60;;;;;;;;;;5092440;28;20451;-72
2022/05/18 09:42:17;;;;;;;9.90;8.90;;;;;;;;;;5085641;28;20456;-71
2022/05/18 09:44:54;;;;;;;12.80;10.00;;;;;;;;;;5078884;28;20490;-72
2022/05/18 09:47:26;;;;;;;9.10;8.20;;;;;;;;;;5076102;28;20486;-74
2022/05/18 09:49:58;;;;;;;10.27;8.37;;;;;;;;;;5080462;28;20517;-73
2022/05/18 09:52:29;;;;;;;8.63;7.87;;;;;;;;;;5083698;28;20474;-71
2022/05/18 09:55:04;;;;;;;9.60;8.60;;;;;;;;;;5082131;28;20538;-73
2022/05/18 09:57:35;;;;;;;9.77;8.77;;;;;;;;;;5091465;28;20987;-72
2022/05/18 10:00:08;;;;;;;11.77;8.50;;;;;;;;;;5088014;28;20452;-72
2022/05/18 10:08:18;;;;;;;12.50;8.53;;;;;;;;;;5087956;28;20528;-73
2022/05/18 10:10:47;;;;;;;10.73;9.63;;;;;;;;;;5082459;28;20451;-70
2022/05/18 10:13:16;;;;;;;12.20;9.27;;;;;;;;;;5083329;28;20557;-72
2022/05/18 10:15:54;;;;;;;9.47;8.57;;;;;;;;;;5084862;28;21043;-72
2022/05/18 10:18:33;;;;;;;10.70;8.97;;;;;;;;;;5087542;28;20463;-71
2022/05/18 10:21:07;;;;;;;13.67;11.70;;;;;;;;;;5080481;28;20464;-72
2022/05/18 10:23:43;;;;;;;12.43;8.57;;;;;;;;;;5063017;28;20482;-69
2022/05/18 10:26:12;;;;;;;11.10;9.90;;;;;;;;;;5084500;28;20817;-72
2022/05/18 10:28:46;;;;;;;10.50;9.40;;;;;;;;;;5085473;28;20491;-71
2022/05/18 10:31:26;;;;;;;11.03;8.20;;;;;;;;;;5075924;28;20456;-72
2022/05/18 10:34:09;;;;;;;10.70;7.67;;;;;;;;;;5080345;28;20463;-72
2022/05/18 10:36:42;;;;;;;15.10;8.67;;;;;;;;;;5088909;28;20447;-71
2022/05/18 10:39:14;;;;;;;11.97;9.10;;;;;;;;;;5084712;28;21100;-72
2022/05/18 10:41:48;;;;;;;12.77;8.87;;;;;;;;;;5076339;28;20458;-73
2022/05/18 10:44:22;;;;;;;11.67;9.17;;;;;;;;;;5082564;28;21067;-72
2022/05/18 10:47:14;;;;;;;11.80;8.40;;;;;;;;;;5083000;28;20533;-73
2022/05/18 10:49:42;;;;;;;10.90;8.07;;;;;;;;;;5076106;28;20455;-72
2022/05/18 10:52:14;;;;;;;9.03;8.13;;;;;;;;;;5088521;28;20470;-73
2022/05/18 10:55:06;;;;;;;9.10;7.90;;;;;;;;;;5081524;28;20908;-72
2022/05/18 10:57:35;;;;;;;9.40;8.40;;;;;;;;;;5092132;28;20520;-72
2022/05/18 11:00:09;;;;;;;7.80;7.10;;;;;;;;;;5077287;28;20954;-72
2022/05/18 11:02:45;;;;;;;10.30;8.27;;;;;;;;;;5080654;28;20776;-73
2022/05/18 11:05:18;;;;;;;9.60;7.97;;;;;;;;;;5082721;28;21170;-71
2022/05/18 11:07:48;;;;;;;9.97;8.43;;;;;;;;;;5084839;28;20456;-72
2022/05/18 11:10:16;;;;;;;7.63;6.90;;;;;;;;;;5084992;28;20462;-71
2022/05/18 11:12:49;;;;;;;7.33;6.63;;;;;;;;;;5088746;28;20807;-72
2022/05/18 11:15:23;;;;;;;8.43;7.00;;;;;;;;;;5079275;28;20729;-72
2022/05/18 11:17:57;;;;;;;7.57;6.77;;;;;;;;;;5074373;28;20494;-72
2022/05/18 11:20:34;;;;;;;7.27;6.53;;;;;;;;;;5074379;28;20440;-73
2022/05/18 11:23:10;;;;;;;9.13;6.20;;;;;;;;;;5083581;28;20466;-72
2022/05/18 11:25:43;;;;;;;7.90;7.10;;;;;;;;;;5080458;28;20573;-72
2022/05/18 11:28:15;;;;;;;6.47;5.40;;;;;;;;;;5083118;28;20486;-71
2022/05/18 11:30:47;;;;;;;6.90;5.80;;;;;;;;;;5077423;28;20832;-71
2022/05/18 11:33:23;;;;;;;6.43;5.33;;;;;;;;;;5078906;28;20767;-72
2022/05/18 11:35:55;;;;;;;7.37;6.13;;;;;;;;;;5081800;28;20875;-72
2022/05/18 11:39:03;;;;;;;;;;;;;;;;;;;;;
2022/05/18 11:41:36;;;;;;;19.43;14.20;;;;;;;;;;5074978;28;20441;-72
2022/05/18 11:44:05;;;;;;;7.93;5.47;;;;;;;;;;5075022;28;20500;-71
2022/05/18 11:46:44;;;;;;;7.73;4.70;;;;;;;;;;5076668;28;20910;-72
2022/05/18 11:49:18;;;;;;;5.73;5.07;;;;;;;;;;5078647;28;20439;-73
2022/05/18 11:51:58;;;;;;;6.63;4.90;;;;;;;;;;5072176;28;20468;-72
2022/05/18 11:54:38;;;;;;;5.10;4.37;;;;;;;;;;5075127;28;20445;-72
2022/05/18 11:57:21;;;;;;;8.10;5.47;;;;;;;;;;5076463;28;20456;-73
2022/05/18 12:00:09;;;;;;;5.90;4.70;;;;;;;;;;5080148;28;20888;-72
2022/05/18 12:03:04;;;;;;;5.83;4.97;;;;;;;;;;5084344;28;20452;-72
2022/05/18 12:05:50;;;;;;;7.10;5.47;;;;;;;;;;5072710;28;20575;-70
2022/05/18 12:08:27;;;;;;;10.13;4.77;;;;;;;;;;5090861;28;20707;-72
2022/05/18 12:11:01;;;;;;;7.50;5.30;;;;;;;;;;5074560;28;20474;-72
2022/05/18 12:13:34;;;;;;;9.70;4.50;;;;;;;;;;5081652;28;20454;-72
2022/05/18 12:16:06;;;;;;;5.00;4.50;;;;;;;;;;5073317;28;20460;-71
2022/05/18 12:18:36;;;;;;;6.93;4.50;;;;;;;;;;5088848;28;20487;-71
2022/05/18 12:21:07;;;;;;;9.87;4.03;;;;;;;;;;5072825;28;20538;-72
2022/05/18 12:23:38;;;;;;;6.40;4.23;;;;;;;;;;5074090;28;21210;-71
2022/05/18 12:26:12;;;;;;;7.23;4.90;;;;;;;;;;5073207;28;20480;-72
2022/05/18 12:28:41;;;;;;;6.37;3.90;;;;;;;;;;5081586;28;20448;-70
2022/05/18 12:31:09;;;;;;;6.80;4.23;;;;;;;;;;5073132;28;20958;-72
2022/05/18 12:33:44;;;;;;;10.27;4.90;;;;;;;;;;5081389;28;20447;-73
2022/05/18 12:36:17;;;;;;;6.67;4.87;;;;;;;;;;5074656;28;20455;-71
2022/05/18 12:38:55;;;;;;;6.90;5.50;;;;;;;;;;5073382;28;20556;-71
2022/05/18 12:41:27;;;;;;;6.50;4.70;;;;;;;;;;5080307;28;20452;-72
2022/05/18 12:44:05;;;;;;;5.23;3.97;;;;;;;;;;5073675;28;20452;-72
2022/05/18 12:46:34;;;;;;;4.67;3.83;;;;;;;;;;5086452;28;20451;-73
2022/05/18 12:49:05;;;;;;;6.17;4.77;;;;;;;;;;5080809;28;20494;-72
2022/05/18 12:51:52;;;;;;;5.57;4.23;;;;;;;;;;5080998;28;20448;-73
2022/05/18 12:54:26;;;;;;;4.73;4.10;;;;;;;;;;5082725;28;20443;-71
2022/05/18 12:57:12;;;;;;;5.93;4.20;;;;;;;;;;5088042;28;20463;-72
2022/05/18 12:59:50;;;;;;;6.20;5.60;;;;;;;;;;5073888;28;20451;-73
2022/05/18 13:02:21;;;;;;;4.80;4.10;;;;;;;;;;5082359;28;20471;-71
2022/05/18 13:04:51;;;;;;;5.10;4.33;;;;;;;;;;5072876;28;20495;-74
2022/05/18 13:07:36;;;;;;;4.90;4.40;;;;;;;;;;5079042;28;20499;-72
2022/05/18 13:10:20;;;;;;;4.63;4.20;;;;;;;;;;5082361;28;20460;-74
2022/05/18 13:12:50;;;;;;;17.37;9.60;;;;;;;;;;5080000;28;20952;-73
2022/05/18 13:15:28;;;;;;;5.90;5.40;;;;;;;;;;5079652;28;20547;-72
2022/05/18 13:17:57;;;;;;;6.40;4.30;;;;;;;;;;5088306;28;20726;-71
2022/05/18 13:20:34;;;;;;;4.87;3.87;;;;;;;;;;5084533;28;20463;-70
2022/05/18 13:23:02;;;;;;;5.63;4.47;;;;;;;;;;5073335;28;20547;-73
2022/05/18 13:25:34;;;;;;;4.57;3.90;;;;;;;;;;5085134;28;20920;-72
2022/05/18 13:28:05;;;;;;;10.60;5.30;;;;;;;;;;5079704;28;20467;-72
2022/05/18 13:30:44;;;;;;;8.27;5.00;;;;;;;;;;5077749;28;20511;-71
2022/05/18 13:35:56;;;;;;;14.03;4.07;;;;;;;;;;5075875;28;20456;-71
2022/05/18 13:38:25;;;;;;;9.00;4.33;;;;;;;;;;5073786;28;20460;-71
2022/05/18 13:40:57;;;;;;;7.00;4.00;;;;;;;;;;5077185;28;20453;-71
2022/05/18 13:43:47;;;;;;;7.37;4.20;;;;;;;;;;5079599;28;20459;-72
2022/05/18 13:46:17;;;;;;;6.77;4.80;;;;;;;;;;5067979;28;20479;-73
2022/05/18 13:48:54;;;;;;;4.53;4.13;;;;;;;;;;5076939;28;20465;-71
2022/05/18 13:54:58;;;;;;;4.60;4.17;;;;;;;;;;4994584;28;21200;-73
2022/05/18 13:57:49;;;;;;;6.60;4.60;;;;;;;;;;5072923;28;20875;-71
2022/05/18 14:00:21;;;;;;;6.73;5.40;;;;;;;;;;5062537;28;20561;-70
2022/05/18 14:02:57;;;;;;;5.30;4.07;;;;;;;;;;5077215;28;20468;-72
2022/05/18 14:05:31;;;;;;;5.90;5.30;;;;;;;;;;5072420;28;20534;-71
2022/05/18 14:07:59;;;;;;;4.10;3.70;;;;;;;;;;5075145;28;20948;-73
2022/05/18 14:10:28;;;;;;;5.20;4.70;;;;;;;;;;5078479;28;20460;-72
2022/05/18 14:13:02;;;;;;;6.40;4.97;;;;;;;;;;5073021;28;20469;-73
2022/05/18 14:15:33;;;;;;;4.87;4.07;;;;;;;;;;5077926;28;20514;-71
2022/05/18 14:18:01;;;;;;;8.23;3.80;;;;;;;;;;5085223;28;20517;-72
2022/05/18 14:20:31;;;;;;;5.63;4.23;;;;;;;;;;5082551;28;20463;-72
2022/05/18 14:23:02;;;;;;;8.20;5.93;;;;;;;;;;5093437;28;20439;-73
2022/05/18 14:25:32;;;;;;;7.67;4.93;;;;;;;;;;5078737;28;20491;-72
2022/05/18 14:28:02;;;;;;;6.70;4.70;;;;;;;;;;5073897;28;20456;-72
2022/05/18 14:30:35;;;;;;;4.77;4.07;;;;;;;;;;5080523;28;20456;-72
2022/05/18 14:33:08;;;;;;;7.20;4.73;;;;;;;;;;5086919;28;20479;-73
2022/05/18 14:35:38;;;;;;;6.83;4.80;;;;;;;;;;5077757;28;20487;-71
2022/05/18 14:38:08;;;;;;;5.77;4.00;;;;;;;;;;5086200;28;20451;-73
2022/05/18 14:40:47;;;;;;;8.30;5.20;;;;;;;;;;5074417;28;20456;-74
2022/05/18 14:43:18;;;;;;;9.00;4.97;;;;;;;;;;5082229;28;20463;-72
2022/05/18 14:45:54;;;;;;;5.13;4.63;;;;;;;;;;5083531;28;21150;-72
2022/05/18 14:48:23;;;;;;;5.97;5.03;;;;;;;;;;5092407;28;21031;-72
2022/05/18 14:50:51;;;;;;;6.90;5.03;;;;;;;;;;5080847;28;20498;-73
2022/05/18 14:53:28;;;;;;;5.80;5.00;;;;;;;;;;5077306;28;20991;-73
2022/05/18 14:56:02;;;;;;;8.10;5.37;;;;;;;;;;5076117;28;20456;-72
2022/05/18 14:58:38;;;;;;;6.87;5.57;;;;;;;;;;5085691;28;20814;-74
2022/05/18 15:01:18;;;;;;;8.30;4.77;;;;;;;;;;5086988;28;20456;-73
2022/05/18 15:03:50;;;;;;;5.50;4.00;;;;;;;;;;5077864;28;20829;-74
2022/05/18 15:06:19;;;;;;;7.37;5.47;;;;;;;;;;5079841;28;20617;-73
2022/05/18 15:08:53;;;;;;;12.50;6.70;;;;;;;;;;5077905;28;20510;-73
2022/05/18 15:11:46;;;;;;;8.77;5.60;;;;;;;;;;5075710;28;20525;-73
2022/05/18 15:17:31;;;;;;;6.87;5.50;;;;;;;;;;5076376;28;20719;-75
2022/05/18 15:20:09;;;;;;;6.57;5.87;;;;;;;;;;5090039;28;20455;-74
2022/05/18 15:22:43;;;;;;;8.83;6.70;;;;;;;;;;5082450;28;20445;-74
2022/05/18 15:25:33;;;;;;;10.00;7.93;;;;;;;;;;5082134;28;20490;-73
2022/05/18 15:28:09;;;;;;;7.97;6.53;;;;;;;;;;5086318;28;20931;-73
2022/05/18 15:30:49;;;;;;;7.23;6.30;;;;;;;;;;5074376;28;20730;-72
2022/05/18 15:33:34;;;;;;;8.87;6.47;;;;;;;;;;5088458;28;20454;-73
2022/05/18 15:36:04;;;;;;;6.73;4.93;;;;;;;;;;5084168;28;20951;-75
2022/05/18 15:38:33;;;;;;;9.83;4.97;;;;;;;;;;5079535;28;20453;-73
2022/05/18 15:41:07;;;;;;;10.00;5.77;;;;;;;;;;5081354;28;20481;-73
2022/05/18 15:43:35;;;;;;;8.13;5.10;;;;;;;;;;5073181;28;20465;-74
2022/05/18 15:46:07;;;;;;;6.60;5.90;;;;;;;;;;5080554;28;20514;-73
2022/05/18 15:48:37;;;;;;;7.40;5.60;;;;;;;;;;5073644;28;20452;-73